createdAt,value
2023-04-23T00:01:21.151Z,14.10
2023-04-23T00:03:50.414Z,14.00
2023-04-23T00:06:18.889Z,14.00
2023-04-23T00:08:46.787Z,14.10
2023-04-23T00:11:14.040Z,14.10
2023-04-23T00:13:42.724Z,14.10
2023-04-23T00:16:11.172Z,14.10
2023-04-23T00:18:39.453Z,14.00
2023-04-23T00:21:08.076Z,14.00
2023-04-23T00:23:36.500Z,14.00
2023-04-23T00:26:03.458Z,14.00
2023-04-23T00:28:32.199Z,14.00
2023-04-23T00:30:59.482Z,13.90
2023-04-23T00:33:27.122Z,13.90
2023-04-23T00:35:56.105Z,13.60
2023-04-23T00:38:23.135Z,13.90
2023-04-23T00:40:50.174Z,14.00
2023-04-23T00:43:21.049Z,13.90
2023-04-23T00:45:48.346Z,14.20
2023-04-23T00:48:16.803Z,14.80
2023-04-23T00:50:43.826Z,13.80
2023-04-23T00:53:13.739Z,13.80
2023-04-23T00:55:42.866Z,12.80
2023-04-23T00:58:10.682Z,13.70
2023-04-23T01:00:46.479Z,13.70
2023-04-23T01:03:13.827Z,13.60
2023-04-23T01:05:42.954Z,13.60
2023-04-23T01:08:13.712Z,14.10
2023-04-23T01:10:42.663Z,13.50
2023-04-23T01:13:12.931Z,13.40
2023-04-23T01:15:40.051Z,13.40
2023-04-23T01:18:11.179Z,14.20
2023-04-23T01:20:39.257Z,13.30
2023-04-23T01:23:07.158Z,13.70
2023-04-23T01:25:35.232Z,13.20
2023-04-23T01:28:03.064Z,13.20
2023-04-23T01:30:31.802Z,13.20
2023-04-23T01:33:02.098Z,13.20
2023-04-23T01:35:30.233Z,13.10
2023-04-23T01:37:59.029Z,13.20
2023-04-23T01:40:27.393Z,13.10
2023-04-23T01:42:56.945Z,13.00
2023-04-23T01:45:26.092Z,13.00
2023-04-23T01:47:55.364Z,13.10
2023-04-23T01:50:28.249Z,14.30
2023-04-23T01:52:56.760Z,13.20
2023-04-23T01:55:25.170Z,12.70
2023-04-23T01:57:54.027Z,13.10
2023-04-23T02:00:21.436Z,13.10
2023-04-23T02:02:52.926Z,13.00
2023-04-23T02:05:21.463Z,13.20
2023-04-23T02:07:52.769Z,13.10
2023-04-23T02:10:21.623Z,13.30
2023-04-23T02:12:51.149Z,13.10
2023-04-23T02:15:20.315Z,13.10
2023-04-23T02:17:53.436Z,13.10
2023-04-23T02:20:21.879Z,13.10
2023-04-23T02:22:50.753Z,13.10
2023-04-23T02:25:22.088Z,13.10
2023-04-23T02:27:49.681Z,13.10
2023-04-23T02:30:18.949Z,13.10
2023-04-23T02:32:46.950Z,13.10
2023-04-23T02:35:13.982Z,13.10
2023-04-23T02:37:41.060Z,13.00
2023-04-23T02:40:12.083Z,13.00
2023-04-23T02:42:41.274Z,13.00
2023-04-23T02:45:10.806Z,13.20
2023-04-23T02:47:38.378Z,13.00
2023-04-23T02:50:08.313Z,13.00
2023-04-23T02:52:37.120Z,13.00
2023-04-23T02:55:06.959Z,13.30
2023-04-23T02:57:34.654Z,12.90
2023-04-23T03:00:02.510Z,12.90
2023-04-23T03:02:36.378Z,12.90
2023-04-23T03:05:05.093Z,12.90
2023-04-23T03:07:33.138Z,12.80
2023-04-23T03:10:00.311Z,12.80
2023-04-23T03:12:27.782Z,12.80
2023-04-23T03:14:55.592Z,12.80
2023-04-23T03:17:26.367Z,12.80
2023-04-23T03:19:53.829Z,12.80
2023-04-23T03:22:22.736Z,12.80
2023-04-23T03:24:51.918Z,12.90
2023-04-23T03:27:21.189Z,12.80
2023-04-23T03:29:51.018Z,12.70
2023-04-23T03:32:21.769Z,12.90
2023-04-23T03:34:49.018Z,12.70
2023-04-23T03:37:17.633Z,12.70
2023-04-23T03:39:44.642Z,12.60
2023-04-23T03:42:15.633Z,13.70
2023-04-23T03:44:48.052Z,12.50
2023-04-23T03:47:17.304Z,12.50
2023-04-23T03:49:46.818Z,12.50
2023-04-23T03:52:15.020Z,12.40
2023-04-23T03:54:43.519Z,12.50
2023-04-23T03:57:20.028Z,12.40
2023-04-23T04:00:16.685Z,12.40
2023-04-23T04:02:45.379Z,12.40
2023-04-23T04:05:14.562Z,12.40
2023-04-23T04:07:42.682Z,12.40
2023-04-23T04:10:10.953Z,12.40
2023-04-23T04:12:41.842Z,12.40
2023-04-23T04:15:14.227Z,12.40
2023-04-23T04:17:43.667Z,12.40
2023-04-23T04:20:13.990Z,12.90
2023-04-23T04:22:46.832Z,12.40
2023-04-23T04:25:14.808Z,12.40
2023-04-23T04:27:48.953Z,13.00
2023-04-23T04:30:17.229Z,12.30
2023-04-23T04:32:46.448Z,12.80
2023-04-23T04:35:14.624Z,12.30
2023-04-23T04:37:43.982Z,12.20
2023-04-23T04:40:13.065Z,12.30
2023-04-23T04:42:41.844Z,12.20
2023-04-23T04:45:12.116Z,11.70
2023-04-23T04:47:40.054Z,12.20
2023-04-23T04:50:08.110Z,12.20
2023-04-23T04:52:36.422Z,12.20
2023-04-23T04:55:03.404Z,12.30
2023-04-23T04:57:30.430Z,12.30
2023-04-23T04:59:57.665Z,12.30
2023-04-23T05:02:24.945Z,12.30
2023-04-23T05:04:52.422Z,12.30
2023-04-23T05:07:19.349Z,12.30
2023-04-23T05:09:46.413Z,12.30
2023-04-23T05:12:13.268Z,12.30
2023-04-23T05:14:40.507Z,12.70
2023-04-23T05:17:07.601Z,12.70
2023-04-23T05:19:34.586Z,12.40
2023-04-23T05:22:03.756Z,12.70
2023-04-23T05:24:30.780Z,12.40
2023-04-23T05:26:58.066Z,12.40
2023-04-23T05:29:25.118Z,12.40
2023-04-23T05:31:52.184Z,12.40
2023-04-23T05:34:19.212Z,12.40
2023-04-23T05:36:46.759Z,12.40
2023-04-23T05:39:13.849Z,12.40
2023-04-23T05:41:41.184Z,12.40
2023-04-23T05:44:08.366Z,12.40
2023-04-23T05:46:35.728Z,12.40
2023-04-23T05:49:02.677Z,12.40
2023-04-23T05:51:29.616Z,13.50
2023-04-23T05:53:56.523Z,12.50
2023-04-23T05:56:23.469Z,12.50
2023-04-23T05:58:50.567Z,12.50
2023-04-23T06:01:18.064Z,12.50
2023-04-23T06:03:45.851Z,12.60
2023-04-23T06:06:13.707Z,12.60
2023-04-23T06:08:40.828Z,12.70
2023-04-23T06:11:07.929Z,12.80
2023-04-23T06:13:42.857Z,12.90
2023-04-23T06:16:10.923Z,13.00
2023-04-23T06:18:39.225Z,13.20
2023-04-23T06:21:06.727Z,13.20
2023-04-23T06:23:35.100Z,13.30
2023-04-23T06:26:02.191Z,13.40
2023-04-23T06:28:29.701Z,13.50
2023-04-23T06:31:19.855Z,13.60
2023-04-23T06:33:47.025Z,13.70
2023-04-23T06:36:14.770Z,13.90
2023-04-23T06:38:41.831Z,14.00
2023-04-23T06:41:09.004Z,14.70
2023-04-23T06:43:36.117Z,14.20
2023-04-23T06:46:35.477Z,14.20
2023-04-23T06:49:03.604Z,14.30
2023-04-23T06:51:32.271Z,14.40
2023-04-23T06:53:59.659Z,14.70
2023-04-23T06:56:27.628Z,14.60
2023-04-23T06:58:54.540Z,14.70
2023-04-23T07:01:23.074Z,14.80
2023-04-23T07:03:52.449Z,14.90
2023-04-23T07:06:19.547Z,14.90
2023-04-23T07:08:46.579Z,15.00
2023-04-23T07:11:13.620Z,15.00
2023-04-23T07:13:40.787Z,15.10
2023-04-23T07:16:07.835Z,15.10
2023-04-23T07:18:34.823Z,15.20
2023-04-23T07:21:01.894Z,15.20
2023-04-23T07:23:28.941Z,15.20
2023-04-23T07:25:55.903Z,15.40
2023-04-23T07:28:22.843Z,15.40
2023-04-23T07:30:50.395Z,15.40
2023-04-23T07:33:17.358Z,15.40
2023-04-23T07:35:44.365Z,15.50
2023-04-23T07:38:11.309Z,15.60
2023-04-23T07:40:39.906Z,15.60
2023-04-23T07:43:07.142Z,15.70
2023-04-23T07:45:34.105Z,15.90
2023-04-23T07:48:02.391Z,16.00
2023-04-23T07:50:29.858Z,16.20
2023-04-23T07:52:57.035Z,16.40
2023-04-23T07:55:24.164Z,16.20
2023-04-23T07:57:51.095Z,16.40
2023-04-23T08:00:18.520Z,16.60
2023-04-23T08:02:45.839Z,16.60
2023-04-23T08:05:13.366Z,16.60
2023-04-23T08:07:40.576Z,16.80
2023-04-23T08:10:08.500Z,17.00
2023-04-23T08:12:36.093Z,17.20
2023-04-23T08:15:03.665Z,17.30
2023-04-23T08:17:37.628Z,17.40
2023-04-23T08:20:08.406Z,17.30
2023-04-23T08:22:35.617Z,17.40
2023-04-23T08:25:02.658Z,17.40
2023-04-23T08:27:30.494Z,17.40
2023-04-23T08:29:57.417Z,17.50
2023-04-23T08:32:24.598Z,17.70
2023-04-23T08:34:51.640Z,17.50
2023-04-23T08:37:29.739Z,17.60
2023-04-23T08:39:58.245Z,17.60
2023-04-23T08:42:49.970Z,17.70
2023-04-23T08:45:17.595Z,17.80
2023-04-23T08:47:44.763Z,17.80
2023-04-23T08:50:20.039Z,17.90
2023-04-23T08:52:53.013Z,17.90
2023-04-23T08:55:22.036Z,18.30
2023-04-23T08:57:50.209Z,18.40
2023-04-23T09:00:19.338Z,18.50
2023-04-23T09:02:48.340Z,18.50
2023-04-23T09:05:16.940Z,18.60
2023-04-23T09:07:44.513Z,18.70
2023-04-23T09:10:15.365Z,18.60
2023-04-23T09:12:45.284Z,18.60
2023-04-23T09:15:13.212Z,18.70
2023-04-23T09:17:45.200Z,19.10
2023-04-23T09:20:13.800Z,19.30
2023-04-23T09:22:48.732Z,19.40
2023-04-23T09:25:18.495Z,19.40
2023-04-23T09:27:48.432Z,19.60
2023-04-23T09:30:16.301Z,19.70
2023-04-23T09:32:49.545Z,19.70
2023-04-23T09:35:19.626Z,19.50
2023-04-23T09:37:50.515Z,19.40
2023-04-23T09:40:20.195Z,19.50
2023-04-23T09:42:55.123Z,19.60
2023-04-23T09:45:22.315Z,19.60
2023-04-23T09:47:51.960Z,19.70
2023-04-23T09:50:19.539Z,19.80
2023-04-23T09:52:53.890Z,20.00
2023-04-23T09:55:35.418Z,19.90
2023-04-23T09:58:04.133Z,19.80
2023-04-23T10:00:36.461Z,19.70
2023-04-23T10:03:04.183Z,19.90
2023-04-23T10:05:44.963Z,20.00
2023-04-23T10:08:19.690Z,20.10
2023-04-23T10:11:00.128Z,20.20
2023-04-23T10:13:36.426Z,20.30
2023-04-23T10:16:18.207Z,20.40
2023-04-23T10:18:51.358Z,20.60
2023-04-23T10:21:19.583Z,20.70
2023-04-23T10:23:48.543Z,20.60
2023-04-23T10:26:18.659Z,20.60
2023-04-23T10:28:50.780Z,20.80
2023-04-23T10:31:19.817Z,21.20
2023-04-23T10:36:25.843Z,21.40
2023-04-23T10:38:58.315Z,21.20
2023-04-23T10:41:34.602Z,21.30
2023-04-23T10:44:01.576Z,21.50
2023-04-23T10:46:32.704Z,21.40
2023-04-23T10:49:11.431Z,21.20
2023-04-23T10:54:12.628Z,21.50
2023-04-23T10:56:40.588Z,21.40
2023-04-23T10:59:21.442Z,21.50
2023-04-23T11:01:53.103Z,21.40
2023-04-23T11:04:29.414Z,21.50
2023-04-23T11:07:01.816Z,21.70
2023-04-23T11:09:44.610Z,21.20
2023-04-23T11:12:13.963Z,21.70
2023-04-23T11:14:48.506Z,21.90
2023-04-23T11:17:17.153Z,22.10
2023-04-23T11:20:07.175Z,22.40
2023-04-23T11:22:38.510Z,22.70
2023-04-23T11:25:14.870Z,22.90
2023-04-23T11:27:43.833Z,23.00
2023-04-23T11:30:16.418Z,23.00
2023-04-23T11:32:49.595Z,23.10
2023-04-23T11:35:18.676Z,23.20
2023-04-23T11:37:48.225Z,23.40
2023-04-23T11:40:19.509Z,23.50
2023-04-23T11:42:51.709Z,23.80
2023-04-23T11:45:19.534Z,24.20
2023-04-23T11:47:49.229Z,24.80
2023-04-23T11:50:41.832Z,26.90
2023-04-23T11:53:11.346Z,29.00
2023-04-23T11:55:38.502Z,30.90
2023-04-23T11:58:06.008Z,33.10
2023-04-23T12:00:32.944Z,31.70
2023-04-23T12:03:02.466Z,31.00
2023-04-23T12:05:35.264Z,31.90
2023-04-23T12:08:15.029Z,31.60
2023-04-23T12:10:42.936Z,32.50
2023-04-23T12:13:31.558Z,32.80
2023-04-23T12:16:00.594Z,31.70
2023-04-23T12:18:32.102Z,30.20
2023-04-23T12:21:07.042Z,28.60
2023-04-23T12:23:36.121Z,27.10
2023-04-23T12:26:06.925Z,26.20
2023-04-23T12:28:33.932Z,26.10
2023-04-23T12:31:03.105Z,26.10
2023-04-23T12:33:31.175Z,25.90
2023-04-23T12:35:58.443Z,25.80
2023-04-23T12:38:30.633Z,25.80
2023-04-23T12:40:59.722Z,25.70
2023-04-23T12:43:27.402Z,25.70
2023-04-23T12:45:57.294Z,25.80
2023-04-23T12:48:24.222Z,26.00
2023-04-23T12:50:51.540Z,25.80
2023-04-23T12:53:19.122Z,25.90
2023-04-23T12:55:46.179Z,26.10
2023-04-23T12:58:13.186Z,26.00
2023-04-23T13:00:40.122Z,25.90
2023-04-23T13:03:07.902Z,25.70
2023-04-23T13:05:34.814Z,25.50
2023-04-23T13:08:01.739Z,25.40
2023-04-23T13:10:31.016Z,25.30
2023-04-23T13:12:58.111Z,25.10
2023-04-23T13:15:27.014Z,24.90
2023-04-23T13:17:54.289Z,24.70
2023-04-23T13:20:21.749Z,24.40
2023-04-23T13:22:48.590Z,23.90
2023-04-23T13:25:15.608Z,24.10
2023-04-23T13:27:42.564Z,23.90
2023-04-23T13:30:10.174Z,23.80
2023-04-23T13:32:37.216Z,23.70
2023-04-23T13:35:05.275Z,23.60
2023-04-23T13:37:33.637Z,23.50
2023-04-23T13:40:01.317Z,23.50
2023-04-23T13:42:28.438Z,23.60
2023-04-23T13:44:56.210Z,23.80
2023-04-23T13:47:23.842Z,23.80
2023-04-23T13:49:51.406Z,23.70
2023-04-23T13:52:18.439Z,23.70
2023-04-23T13:54:47.796Z,23.40
2023-04-23T13:57:16.325Z,23.30
2023-04-23T13:59:43.394Z,23.10
2023-04-23T14:02:10.551Z,23.10
2023-04-23T14:04:39.674Z,23.10
2023-04-23T14:07:07.111Z,22.90
2023-04-23T14:09:34.455Z,22.70
2023-04-23T14:12:01.663Z,22.60
2023-04-23T14:14:28.761Z,22.40
2023-04-23T14:16:55.755Z,22.30
2023-04-23T14:19:26.151Z,22.20
2023-04-23T14:21:53.137Z,22.00
2023-04-23T14:24:27.534Z,22.00
2023-04-23T14:26:54.489Z,22.00
2023-04-23T14:29:41.868Z,21.80
2023-04-23T14:32:09.097Z,21.70
2023-04-23T14:34:36.319Z,21.60
2023-04-23T14:37:04.292Z,21.60
2023-04-23T14:39:31.622Z,21.40
2023-04-23T14:41:58.652Z,21.00
2023-04-23T14:44:28.509Z,20.30
2023-04-23T14:46:55.571Z,19.60
2023-04-23T14:49:22.891Z,18.70
2023-04-23T14:51:54.007Z,18.60
2023-04-23T14:54:24.456Z,18.40
2023-04-23T14:56:51.965Z,18.20
2023-04-23T14:59:23.404Z,18.10
2023-04-23T15:01:50.575Z,18.00
2023-04-23T15:04:18.618Z,17.80
2023-04-23T15:06:47.313Z,17.90
2023-04-23T15:09:16.309Z,17.90
2023-04-23T15:11:46.106Z,18.00
2023-04-23T15:14:21.462Z,18.00
2023-04-23T15:16:50.499Z,17.90
2023-04-23T15:19:19.118Z,17.90
2023-04-23T15:21:47.640Z,17.90
2023-04-23T15:24:18.309Z,18.00
2023-04-23T15:26:48.214Z,18.50
2023-04-23T15:29:21.410Z,18.20
2023-04-23T15:31:48.804Z,18.30
2023-04-23T15:34:16.348Z,18.30
2023-04-23T15:36:44.977Z,18.40
2023-04-23T15:39:13.011Z,18.40
2023-04-23T15:41:41.521Z,18.50
2023-04-23T15:44:13.215Z,18.60
2023-04-23T15:46:43.321Z,18.40
2023-04-23T15:49:10.379Z,18.30
2023-04-23T15:51:44.906Z,18.40
2023-04-23T15:54:12.340Z,18.20
2023-04-23T15:57:05.153Z,18.20
2023-04-23T15:59:32.796Z,18.10
2023-04-23T16:01:59.912Z,18.10
2023-04-23T16:04:27.120Z,18.00
2023-04-23T16:09:42.172Z,17.70
2023-04-23T16:12:10.688Z,17.70
2023-04-23T16:14:38.151Z,17.60
2023-04-23T16:17:05.394Z,17.60
2023-04-23T16:19:32.571Z,17.60
2023-04-23T16:21:59.716Z,17.50
2023-04-23T16:24:26.671Z,17.40
2023-04-23T16:26:53.999Z,17.40
2023-04-23T16:29:22.662Z,17.50
2023-04-23T16:31:50.578Z,17.50
2023-04-23T16:34:17.680Z,17.50
2023-04-23T16:36:44.792Z,17.50
2023-04-23T16:39:11.931Z,17.50
2023-04-23T16:41:38.953Z,17.50
2023-04-23T16:44:06.055Z,17.50
2023-04-23T16:46:33.279Z,17.50
2023-04-23T16:49:00.522Z,17.50
2023-04-23T16:51:28.813Z,17.50
2023-04-23T16:53:59.955Z,17.50
2023-04-23T16:56:27.434Z,17.50
2023-04-23T16:58:54.593Z,17.40
2023-04-23T17:01:26.530Z,17.40
2023-04-23T17:03:54.670Z,17.40
2023-04-23T17:06:28.515Z,17.40
2023-04-23T17:08:59.877Z,17.40
2023-04-23T17:11:31.298Z,17.20
2023-04-23T17:13:59.661Z,17.30
2023-04-23T17:16:28.502Z,17.30
2023-04-23T17:18:56.161Z,17.30
2023-04-23T17:21:25.116Z,17.30
2023-04-23T17:23:52.198Z,17.30
2023-04-23T17:26:19.636Z,17.20
2023-04-23T17:28:46.986Z,17.20
2023-04-23T17:31:16.556Z,17.20
2023-04-23T17:33:45.403Z,17.20
2023-04-23T17:36:12.482Z,17.10
2023-04-23T17:38:40.005Z,17.10
2023-04-23T17:43:53.015Z,16.90
2023-04-23T17:46:23.632Z,16.20
2023-04-23T17:49:16.505Z,15.30
2023-04-23T17:51:52.673Z,14.90
2023-04-23T17:54:19.868Z,14.60
2023-04-23T17:56:46.964Z,14.40
2023-04-23T17:59:14.055Z,14.50
2023-04-23T18:01:41.260Z,13.90
2023-04-23T18:04:09.099Z,14.40
2023-04-23T18:06:37.828Z,14.30
2023-04-23T18:09:06.947Z,14.20
2023-04-23T18:11:33.945Z,14.10
2023-04-23T18:14:01.943Z,14.10
2023-04-23T18:16:29.055Z,14.10
2023-04-23T18:18:56.085Z,14.20
2023-04-23T18:21:25.225Z,14.30
2023-04-23T18:23:52.211Z,14.20
2023-04-23T18:26:19.533Z,14.20
2023-04-23T18:28:46.618Z,14.30
2023-04-23T18:31:14.067Z,14.30
2023-04-23T18:33:42.197Z,14.40
2023-04-23T18:36:32.345Z,14.30
2023-04-23T18:38:59.887Z,14.30
2023-04-23T18:41:30.912Z,14.40
2023-04-23T18:44:00.188Z,14.40
2023-04-23T18:46:31.382Z,14.40
2023-04-23T18:49:26.361Z,14.40
2023-04-23T18:51:53.609Z,14.40
2023-04-23T18:54:22.708Z,14.40
2023-04-23T18:56:51.215Z,14.40
2023-04-23T18:59:19.757Z,14.40
2023-04-23T19:01:50.851Z,14.30
2023-04-23T19:04:18.583Z,14.30
2023-04-23T19:06:47.211Z,14.20
2023-04-23T19:09:18.217Z,14.30
2023-04-23T19:11:46.607Z,14.20
2023-04-23T19:14:17.586Z,14.20
2023-04-23T19:16:46.430Z,14.20
2023-04-23T19:19:14.298Z,13.90
2023-04-23T19:21:42.756Z,14.10
2023-04-23T19:24:12.933Z,13.90
2023-04-23T19:26:41.922Z,13.90
2023-04-23T19:29:09.718Z,13.80
2023-04-23T19:31:36.997Z,13.80
2023-04-23T19:34:04.426Z,14.00
2023-04-23T19:36:32.576Z,13.80
2023-04-23T19:38:59.884Z,13.80
2023-04-23T19:41:26.946Z,13.80
2023-04-23T19:43:55.909Z,13.70
2023-04-23T19:46:22.922Z,13.70
2023-04-23T19:48:50.082Z,13.70
2023-04-23T19:51:19.234Z,13.60
2023-04-23T19:53:46.260Z,13.60
2023-04-23T19:56:15.128Z,13.40
2023-04-23T19:58:43.100Z,11.90
2023-04-23T20:01:11.406Z,13.30
2023-04-23T20:03:40.070Z,13.30
2023-04-23T20:06:07.202Z,14.00
2023-04-23T20:08:42.521Z,12.60
2023-04-23T20:11:10.686Z,13.20
2023-04-23T20:13:40.193Z,13.20
2023-04-23T20:16:08.298Z,13.20
2023-04-23T20:18:36.261Z,13.50
2023-04-23T20:21:04.319Z,13.30
2023-04-23T20:23:32.064Z,13.30
2023-04-23T20:25:59.514Z,13.30
2023-04-23T20:28:26.809Z,13.20
2023-04-23T20:30:54.128Z,13.20
2023-04-23T20:33:22.749Z,13.20
2023-04-23T20:35:50.686Z,13.50
2023-04-23T20:38:19.627Z,12.90
2023-04-23T20:40:52.033Z,13.20
2023-04-23T20:43:19.345Z,13.20
2023-04-23T20:45:46.711Z,13.20
2023-04-23T20:48:15.470Z,13.20
2023-04-23T20:50:45.012Z,13.20
2023-04-23T20:53:14.522Z,13.20
2023-04-23T20:55:44.412Z,13.10
2023-04-23T20:58:11.688Z,13.00
2023-04-23T21:00:39.447Z,13.20
2023-04-23T21:03:09.362Z,12.90
2023-04-23T21:05:38.697Z,12.90
2023-04-23T21:08:06.381Z,12.60
2023-04-23T21:10:33.444Z,12.90
2023-04-23T21:13:01.052Z,12.90
2023-04-23T21:15:30.872Z,12.80
2023-04-23T21:17:58.761Z,12.90
2023-04-23T21:20:28.697Z,12.90
2023-04-23T21:22:55.559Z,13.00
2023-04-23T21:25:22.904Z,11.70
2023-04-23T21:27:50.805Z,12.80
2023-04-23T21:30:29.315Z,12.90
2023-04-23T21:32:57.285Z,12.80
2023-04-23T21:35:24.495Z,12.80
2023-04-23T21:37:52.898Z,12.80
2023-04-23T21:40:20.111Z,12.80
2023-04-23T21:42:47.633Z,12.80
2023-04-23T21:45:17.637Z,12.80
2023-04-23T21:47:44.640Z,12.80
2023-04-23T21:50:12.194Z,13.50
2023-04-23T21:52:43.137Z,12.90
2023-04-23T21:55:12.212Z,12.90
2023-04-23T21:57:39.362Z,12.80
2023-04-23T22:00:07.272Z,12.80
2023-04-23T22:02:47.823Z,12.80
2023-04-23T22:05:23.084Z,12.80
2023-04-23T22:07:55.361Z,12.80
2023-04-23T22:10:22.768Z,13.10
2023-04-23T22:12:50.465Z,12.80
2023-04-23T22:15:20.027Z,13.90
2023-04-23T22:17:51.129Z,12.80
2023-04-23T22:20:19.196Z,12.80
2023-04-23T22:22:47.494Z,12.80
2023-04-23T22:25:16.300Z,12.70
2023-04-23T22:27:45.976Z,13.40
2023-04-23T22:30:13.199Z,12.70
2023-04-23T22:32:40.958Z,12.70
2023-04-23T22:35:08.528Z,12.80
2023-04-23T22:37:36.232Z,12.80
2023-04-23T22:40:04.295Z,13.00
2023-04-23T22:42:31.453Z,12.80
2023-04-23T22:44:58.459Z,13.20
2023-04-23T22:47:25.590Z,12.80
2023-04-23T22:49:52.677Z,12.80
2023-04-23T22:52:19.802Z,13.10
2023-04-23T22:54:46.982Z,12.80
2023-04-23T22:57:14.480Z,12.80
2023-04-23T22:59:41.848Z,12.70
2023-04-23T23:02:09.202Z,13.10
2023-04-23T23:04:39.328Z,12.70
2023-04-23T23:07:07.099Z,12.60
2023-04-23T23:09:34.021Z,12.60
2023-04-23T23:12:05.716Z,12.60
2023-04-23T23:14:34.010Z,12.80
2023-04-23T23:17:01.084Z,13.70
2023-04-23T23:19:28.093Z,12.80
2023-04-23T23:21:57.728Z,12.50
2023-04-23T23:24:26.978Z,12.70
2023-04-23T23:26:54.266Z,12.70
2023-04-23T23:29:21.521Z,12.60
2023-04-23T23:31:48.658Z,13.00
2023-04-23T23:34:17.505Z,12.50
2023-04-23T23:36:49.646Z,12.60
2023-04-23T23:39:19.266Z,12.60
2023-04-23T23:41:47.547Z,12.60
2023-04-23T23:44:16.157Z,12.50
2023-04-23T23:46:43.400Z,13.70
2023-04-23T23:49:13.584Z,13.80
2023-04-23T23:51:43.214Z,12.60
2023-04-23T23:54:12.834Z,12.70
2023-04-23T23:56:40.020Z,13.00
2023-04-23T23:59:07.296Z,12.60
